createdAt,value
2022-11-26T00:00:30.513Z,81.51
2022-11-26T00:02:57.171Z,81.15
2022-11-26T00:05:24.616Z,80.20
2022-11-26T00:07:56.600Z,80.30
2022-11-26T00:10:26.909Z,81.37
2022-11-26T00:12:53.836Z,83.13
2022-11-26T00:15:26.886Z,84.57
2022-11-26T00:17:53.990Z,84.44
2022-11-26T00:20:23.415Z,84.73
2022-11-26T00:22:53.255Z,84.95
2022-11-26T00:25:22.578Z,85.09
2022-11-26T00:27:50.405Z,84.29
2022-11-26T00:30:22.820Z,83.42
2022-11-26T00:32:49.712Z,82.44
2022-11-26T00:35:16.693Z,82.70
2022-11-26T00:37:47.517Z,83.06
2022-11-26T00:40:33.603Z,83.95
2022-11-26T00:43:01.940Z,86.90
2022-11-26T00:45:30.874Z,86.38
2022-11-26T00:47:57.496Z,86.35
2022-11-26T00:50:27.503Z,84.21
2022-11-26T00:52:56.634Z,84.15
2022-11-26T00:55:31.540Z,85.89
2022-11-26T00:57:58.430Z,85.54
2022-11-26T01:00:28.013Z,83.42
2022-11-26T01:02:55.523Z,82.37
2022-11-26T01:05:24.465Z,81.71
2022-11-26T01:07:52.601Z,83.46
2022-11-26T01:10:23.336Z,83.16
2022-11-26T01:12:51.140Z,84.02
2022-11-26T01:15:19.087Z,85.08
2022-11-26T01:17:45.988Z,84.87
2022-11-26T01:20:25.807Z,84.40
2022-11-26T01:22:53.908Z,83.24
2022-11-26T01:25:21.271Z,83.14
2022-11-26T01:27:48.000Z,82.25
2022-11-26T01:30:26.086Z,81.19
2022-11-26T01:32:53.682Z,81.72
2022-11-26T01:35:21.377Z,81.86
2022-11-26T01:37:48.633Z,82.57
2022-11-26T01:40:27.040Z,82.05
2022-11-26T01:42:59.184Z,81.56
2022-11-26T01:45:25.896Z,82.64
2022-11-26T01:47:52.445Z,81.96
2022-11-26T01:50:28.071Z,82.08
2022-11-26T01:52:59.537Z,82.50
2022-11-26T01:55:38.328Z,81.00
2022-11-26T01:58:07.384Z,80.72
2022-11-26T02:00:33.918Z,80.12
2022-11-26T02:03:01.368Z,80.52
2022-11-26T02:05:31.468Z,80.88
2022-11-26T02:07:58.135Z,81.60
2022-11-26T02:10:24.720Z,82.28
2022-11-26T02:12:51.614Z,83.19
2022-11-26T02:15:18.194Z,84.10
2022-11-26T02:17:57.989Z,83.69
2022-11-26T02:20:33.693Z,84.16
2022-11-26T02:23:06.238Z,85.29
2022-11-26T02:25:57.144Z,86.89
2022-11-26T02:28:23.644Z,87.34
2022-11-26T02:30:58.985Z,85.46
2022-11-26T02:33:41.765Z,83.69
2022-11-26T02:36:15.090Z,82.02
2022-11-26T02:38:41.580Z,80.98
2022-11-26T02:41:09.016Z,80.21
2022-11-26T02:43:37.171Z,80.45
2022-11-26T02:46:12.403Z,80.78
2022-11-26T02:48:44.433Z,80.55
2022-11-26T02:51:28.376Z,80.26
2022-11-26T02:53:58.769Z,81.50
2022-11-26T02:56:27.694Z,82.42
2022-11-26T02:58:56.595Z,83.86
2022-11-26T03:01:31.786Z,83.14
2022-11-26T03:04:03.570Z,83.36
2022-11-26T03:06:32.786Z,83.38
2022-11-26T03:08:59.312Z,83.35
2022-11-26T03:11:26.113Z,82.67
2022-11-26T03:13:52.597Z,82.47
2022-11-26T03:16:19.317Z,82.12
2022-11-26T03:18:45.831Z,81.47
2022-11-26T03:21:12.280Z,81.77
2022-11-26T03:23:38.707Z,81.22
2022-11-26T03:26:05.246Z,81.61
2022-11-26T03:28:31.661Z,82.32
2022-11-26T03:30:58.379Z,80.47
2022-11-26T03:33:24.814Z,80.67
2022-11-26T03:35:51.329Z,80.29
2022-11-26T03:38:17.857Z,79.13
2022-11-26T03:40:44.449Z,78.97
2022-11-26T03:43:10.914Z,79.48
2022-11-26T03:45:37.474Z,80.38
2022-11-26T03:48:04.136Z,80.44
2022-11-26T03:50:30.635Z,79.79
2022-11-26T03:52:57.040Z,79.41
2022-11-26T03:55:23.474Z,79.68
2022-11-26T03:57:50.007Z,80.03
2022-11-26T04:00:17.561Z,79.56
2022-11-26T04:02:44.024Z,79.18
2022-11-26T04:05:10.610Z,78.89
2022-11-26T04:07:37.154Z,79.05
2022-11-26T04:10:04.235Z,78.52
2022-11-26T04:12:30.730Z,79.11
2022-11-26T04:14:57.177Z,79.18
2022-11-26T04:17:23.636Z,79.23
2022-11-26T04:19:50.088Z,78.90
2022-11-26T04:22:16.604Z,78.31
2022-11-26T04:24:43.044Z,78.82
2022-11-26T04:27:09.484Z,79.34
2022-11-26T04:29:37.395Z,79.86
2022-11-26T04:32:04.877Z,79.66
2022-11-26T04:34:32.745Z,79.87
2022-11-26T04:36:59.184Z,79.55
2022-11-26T04:39:25.654Z,80.34
2022-11-26T04:41:52.172Z,80.73
2022-11-26T04:44:18.664Z,81.67
2022-11-26T04:46:45.296Z,80.40
2022-11-26T04:49:11.755Z,80.27
2022-11-26T04:51:38.214Z,79.52
2022-11-26T04:54:08.602Z,79.52
2022-11-26T04:56:37.938Z,78.87
2022-11-26T04:59:04.407Z,78.38
2022-11-26T05:01:31.306Z,78.59
2022-11-26T05:03:57.958Z,79.48
2022-11-26T05:06:25.504Z,78.97
2022-11-26T05:08:51.965Z,78.40
2022-11-26T05:11:18.549Z,78.14
2022-11-26T05:13:45.010Z,78.34
2022-11-26T05:16:11.432Z,79.08
2022-11-26T05:18:37.961Z,80.04
2022-11-26T05:21:05.954Z,80.47
2022-11-26T05:23:32.575Z,79.76
2022-11-26T05:25:59.019Z,78.52
2022-11-26T05:28:25.529Z,78.63
2022-11-26T05:31:02.766Z,78.79
2022-11-26T05:33:30.074Z,79.41
2022-11-26T05:35:56.708Z,79.79
2022-11-26T05:38:23.555Z,79.42
2022-11-26T05:40:50.401Z,79.05
2022-11-26T05:43:17.242Z,79.06
2022-11-26T05:45:44.078Z,78.18
2022-11-26T05:48:10.614Z,78.09
2022-11-26T05:50:37.092Z,78.23
2022-11-26T05:53:03.707Z,78.39
2022-11-26T05:55:30.552Z,78.43
2022-11-26T05:57:57.155Z,78.76
2022-11-26T06:00:23.665Z,79.25
2022-11-26T06:02:50.241Z,78.75
2022-11-26T06:05:16.893Z,78.81
2022-11-26T06:07:44.941Z,78.69
2022-11-26T06:10:13.265Z,78.50
2022-11-26T06:12:39.734Z,78.90
2022-11-26T06:15:06.675Z,79.25
2022-11-26T06:17:33.103Z,79.56
2022-11-26T06:19:59.934Z,79.72
2022-11-26T06:22:26.363Z,80.69
2022-11-26T06:24:52.803Z,81.09
2022-11-26T06:27:19.349Z,81.12
2022-11-26T06:29:45.767Z,81.77
2022-11-26T06:32:12.275Z,81.50
2022-11-26T06:34:39.172Z,81.50
2022-11-26T06:37:06.177Z,81.74
2022-11-26T06:39:32.606Z,82.02
2022-11-26T06:41:59.069Z,82.56
2022-11-26T06:44:25.550Z,83.42
2022-11-26T06:46:52.015Z,83.78
2022-11-26T06:49:18.495Z,83.90
2022-11-26T06:51:44.925Z,85.13
2022-11-26T06:54:11.422Z,86.00
2022-11-26T06:56:39.330Z,86.36
2022-11-26T06:59:05.783Z,87.20
2022-11-26T07:01:32.286Z,85.75
2022-11-26T07:03:59.296Z,85.40
2022-11-26T07:06:28.219Z,84.99
2022-11-26T07:08:56.905Z,85.18
2022-11-26T07:11:25.595Z,84.84
2022-11-26T07:13:52.460Z,86.32
2022-11-26T07:16:19.007Z,87.01
2022-11-26T07:18:50.495Z,87.81
2022-11-26T07:21:17.432Z,87.13
2022-11-26T07:23:44.035Z,87.76
2022-11-26T07:26:11.989Z,87.61
2022-11-26T07:28:38.553Z,87.52
2022-11-26T07:31:13.068Z,87.31
2022-11-26T07:33:44.118Z,87.31
2022-11-26T07:36:19.623Z,86.94
2022-11-26T07:38:46.426Z,88.39
2022-11-26T07:41:16.201Z,88.74
2022-11-26T07:43:43.620Z,89.38
2022-11-26T07:46:12.864Z,89.47
2022-11-26T07:48:41.584Z,89.46
2022-11-26T07:51:16.361Z,100.00
2022-11-26T07:53:42.790Z,100.00
2022-11-26T07:56:09.238Z,99.12
2022-11-26T07:58:36.334Z,94.92
2022-11-26T08:01:16.679Z,87.08
2022-11-26T08:03:46.641Z,83.40
2022-11-26T08:06:17.230Z,78.71
2022-11-26T08:08:43.689Z,79.05
2022-11-26T08:11:16.623Z,80.87
2022-11-26T08:13:43.827Z,82.09
2022-11-26T08:16:11.485Z,82.85
2022-11-26T08:18:38.536Z,83.59
2022-11-26T08:21:05.895Z,83.40
2022-11-26T08:23:33.215Z,84.16
2022-11-26T08:26:22.520Z,84.10
2022-11-26T08:28:51.440Z,84.82
2022-11-26T08:31:18.012Z,85.05
2022-11-26T08:33:45.174Z,85.66
2022-11-26T08:36:12.137Z,85.58
2022-11-26T08:38:39.433Z,86.54
2022-11-26T08:41:12.791Z,87.33
2022-11-26T08:44:05.201Z,87.70
2022-11-26T08:46:26.925Z,88.40
2022-11-26T08:48:56.328Z,88.91
2022-11-26T08:51:23.144Z,89.25
2022-11-26T08:53:49.595Z,89.83
2022-11-26T08:56:15.989Z,90.40
2022-11-26T08:58:48.511Z,90.64
2022-11-26T09:01:16.474Z,90.91
2022-11-26T09:03:43.596Z,91.30
2022-11-26T09:06:10.777Z,90.67
2022-11-26T09:08:56.908Z,91.25
2022-11-26T09:11:25.368Z,91.66
2022-11-26T09:13:53.405Z,91.54
2022-11-26T09:16:21.512Z,91.39
2022-11-26T09:18:48.166Z,91.65
2022-11-26T09:21:14.693Z,91.29
2022-11-26T09:23:41.114Z,90.79
2022-11-26T09:26:07.554Z,90.99
2022-11-26T09:28:34.033Z,90.06
2022-11-26T09:31:01.468Z,89.85
2022-11-26T09:33:29.227Z,90.29
2022-11-26T09:36:07.230Z,89.38
2022-11-26T09:38:35.416Z,89.85
2022-11-26T09:41:29.509Z,89.18
2022-11-26T09:44:02.110Z,88.76
2022-11-26T09:46:45.481Z,89.44
2022-11-26T09:49:22.320Z,90.23
2022-11-26T09:51:53.396Z,89.98
2022-11-26T09:54:23.572Z,90.02
2022-11-26T09:56:54.837Z,89.49
2022-11-26T09:59:22.441Z,89.45
2022-11-26T10:01:48.918Z,88.64
2022-11-26T10:04:29.774Z,88.89
2022-11-26T10:07:44.182Z,89.16
2022-11-26T10:10:26.914Z,89.27
2022-11-26T10:13:20.662Z,89.20
2022-11-26T10:16:10.796Z,88.50
2022-11-26T10:18:46.920Z,88.29
2022-11-26T10:21:58.038Z,87.53
2022-11-26T10:24:30.553Z,87.48
2022-11-26T10:27:00.126Z,86.98
2022-11-26T10:29:42.685Z,87.18
2022-11-26T10:32:20.605Z,87.00
2022-11-26T10:34:55.234Z,86.75
2022-11-26T10:37:23.888Z,86.01
2022-11-26T10:40:00.076Z,86.60
2022-11-26T10:42:43.227Z,85.02
2022-11-26T10:45:28.457Z,84.94
2022-11-26T10:48:16.027Z,85.11
2022-11-26T10:50:54.225Z,85.57
2022-11-26T10:53:23.292Z,84.73
2022-11-26T10:55:51.843Z,85.18
2022-11-26T10:58:25.411Z,84.37
2022-11-26T11:00:51.912Z,83.79
2022-11-26T11:03:59.337Z,84.38
2022-11-26T11:06:23.662Z,85.14
2022-11-26T11:08:51.970Z,85.00
2022-11-26T11:11:27.467Z,85.38
2022-11-26T11:13:54.910Z,85.33
2022-11-26T11:16:26.406Z,85.05
2022-11-26T11:19:02.108Z,85.25
2022-11-26T11:21:34.207Z,85.03
2022-11-26T11:24:20.994Z,84.71
2022-11-26T11:26:53.408Z,84.54
2022-11-26T11:29:28.978Z,84.10
2022-11-26T11:31:57.420Z,84.35
2022-11-26T11:34:44.714Z,84.01
2022-11-26T11:37:22.881Z,84.14
2022-11-26T11:40:05.083Z,84.09
2022-11-26T11:42:32.308Z,84.62
2022-11-26T11:45:00.645Z,84.14
2022-11-26T11:47:43.509Z,83.70
2022-11-26T11:50:50.255Z,84.08
2022-11-26T11:53:46.922Z,83.01
2022-11-26T11:56:44.234Z,82.91
2022-11-26T11:59:17.526Z,83.27
2022-11-26T12:02:37.436Z,82.99
2022-11-26T12:05:31.228Z,83.18
2022-11-26T12:08:07.352Z,83.00
2022-11-26T12:10:43.641Z,83.46
2022-11-26T12:13:13.929Z,83.07
2022-11-26T12:15:52.184Z,82.98
2022-11-26T12:18:37.177Z,83.31
2022-11-26T12:21:09.625Z,82.74
2022-11-26T12:23:55.004Z,82.74
2022-11-26T12:26:30.857Z,81.87
2022-11-26T12:29:02.773Z,81.23
2022-11-26T12:31:38.756Z,81.81
2022-11-26T12:34:12.696Z,81.40
2022-11-26T12:36:39.066Z,82.28
2022-11-26T12:39:19.827Z,81.81
2022-11-26T12:42:02.640Z,81.70
2022-11-26T12:44:36.230Z,81.01
2022-11-26T12:47:20.664Z,80.94
2022-11-26T12:50:12.830Z,81.32
2022-11-26T12:52:52.542Z,80.94
2022-11-26T12:55:28.620Z,80.71
2022-11-26T12:58:09.940Z,80.63
2022-11-26T13:00:36.891Z,79.63
2022-11-26T13:03:05.797Z,78.48
2022-11-26T13:05:52.296Z,78.62
2022-11-26T13:08:24.509Z,77.37
2022-11-26T13:11:26.919Z,76.97
2022-11-26T13:13:59.812Z,77.91
2022-11-26T13:16:38.947Z,77.75
2022-11-26T13:19:34.927Z,77.46
2022-11-26T13:22:20.194Z,76.60
2022-11-26T13:25:26.770Z,75.97
2022-11-26T13:28:26.910Z,76.34
2022-11-26T13:31:30.090Z,75.97
2022-11-26T13:34:02.404Z,76.77
2022-11-26T13:37:03.957Z,76.84
2022-11-26T13:39:56.164Z,76.35
2022-11-26T13:42:58.042Z,76.63
2022-11-26T13:46:06.262Z,76.44
2022-11-26T13:48:57.357Z,76.63
2022-11-26T13:51:50.617Z,76.28
2022-11-26T13:54:40.891Z,76.38
2022-11-26T13:57:17.013Z,76.96
2022-11-26T13:59:49.868Z,76.27
2022-11-26T14:02:35.261Z,76.06
2022-11-26T14:05:05.903Z,75.73
2022-11-26T14:07:32.806Z,75.99
2022-11-26T14:10:07.445Z,75.98
2022-11-26T14:13:11.893Z,76.04
2022-11-26T14:15:41.391Z,76.32
2022-11-26T14:18:13.523Z,76.15
2022-11-26T14:20:58.113Z,76.79
2022-11-26T14:23:40.878Z,76.55
2022-11-26T14:26:10.361Z,76.80
2022-11-26T14:28:36.961Z,76.28
2022-11-26T14:31:23.817Z,76.48
2022-11-26T14:33:54.612Z,76.17
2022-11-26T14:36:29.647Z,76.53
2022-11-26T14:39:12.932Z,76.36
2022-11-26T14:41:42.642Z,76.45
2022-11-26T14:44:14.188Z,76.63
2022-11-26T14:46:42.802Z,76.58
2022-11-26T14:49:32.085Z,76.45
2022-11-26T14:52:00.387Z,76.14
2022-11-26T14:54:39.924Z,77.34
2022-11-26T14:57:13.397Z,76.92
2022-11-26T15:00:00.611Z,77.08
2022-11-26T15:02:29.529Z,76.76
2022-11-26T15:05:16.024Z,76.97
2022-11-26T15:07:42.610Z,76.50
2022-11-26T15:10:14.885Z,76.71
2022-11-26T15:12:43.773Z,76.13
2022-11-26T15:15:17.311Z,76.02
2022-11-26T15:17:49.030Z,76.29
2022-11-26T15:20:17.718Z,76.75
2022-11-26T15:22:50.445Z,76.78
2022-11-26T15:25:24.964Z,76.46
2022-11-26T15:27:53.637Z,76.99
2022-11-26T15:30:20.473Z,76.95
2022-11-26T15:32:47.247Z,76.34
2022-11-26T15:35:15.635Z,76.20
2022-11-26T15:37:42.349Z,77.28
2022-11-26T15:40:31.565Z,77.06
2022-11-26T15:43:02.218Z,76.72
2022-11-26T15:45:40.430Z,77.00
2022-11-26T15:48:50.005Z,76.96
2022-11-26T15:51:15.635Z,77.27
2022-11-26T15:53:47.814Z,77.20
2022-11-26T15:56:24.906Z,77.37
2022-11-26T15:58:58.689Z,77.30
2022-11-26T16:01:31.493Z,77.83
2022-11-26T16:04:06.350Z,77.22
2022-11-26T16:06:38.982Z,77.00
2022-11-26T16:09:14.908Z,77.60
2022-11-26T16:11:57.283Z,77.61
2022-11-26T16:14:35.415Z,77.18
2022-11-26T16:17:22.228Z,77.17
2022-11-26T16:19:54.362Z,77.77
2022-11-26T16:22:27.073Z,77.24
2022-11-26T16:25:20.801Z,77.36
2022-11-26T16:28:11.980Z,77.27
2022-11-26T16:30:40.409Z,78.11
2022-11-26T16:33:08.246Z,77.34
2022-11-26T16:35:50.176Z,77.50
2022-11-26T16:38:25.443Z,78.31
2022-11-26T16:40:52.271Z,77.76
2022-11-26T16:43:19.058Z,77.88
2022-11-26T16:45:46.302Z,78.28
2022-11-26T16:48:26.402Z,78.05
2022-11-26T16:50:56.392Z,78.11
2022-11-26T16:53:23.483Z,78.40
2022-11-26T16:55:50.968Z,77.69
2022-11-26T16:58:32.785Z,78.09
2022-11-26T17:00:59.558Z,78.61
2022-11-26T17:03:27.888Z,78.75
2022-11-26T17:05:58.312Z,79.07
2022-11-26T17:08:24.719Z,78.55
2022-11-26T17:10:51.388Z,78.93
2022-11-26T17:13:21.323Z,78.36
2022-11-26T17:15:49.233Z,78.44
2022-11-26T17:18:23.891Z,78.93
2022-11-26T17:20:51.762Z,78.33
2022-11-26T17:23:18.268Z,78.77
2022-11-26T17:25:48.472Z,77.99
2022-11-26T17:28:15.994Z,78.14
2022-11-26T17:30:44.174Z,78.26
2022-11-26T17:33:11.412Z,78.03
2022-11-26T17:35:38.338Z,77.79
2022-11-26T17:38:20.879Z,77.69
2022-11-26T17:40:48.292Z,78.33
2022-11-26T17:43:14.844Z,77.74
2022-11-26T17:45:41.823Z,78.08
2022-11-26T17:48:13.277Z,77.59
2022-11-26T17:50:40.381Z,78.32
2022-11-26T17:53:06.989Z,77.64
2022-11-26T17:55:33.656Z,78.32
2022-11-26T17:58:00.153Z,77.64
2022-11-26T18:00:28.916Z,77.67
2022-11-26T18:02:56.087Z,77.79
2022-11-26T18:05:22.793Z,77.81
2022-11-26T18:07:49.948Z,78.41
2022-11-26T18:10:18.306Z,77.71
2022-11-26T18:12:45.228Z,77.94
2022-11-26T18:15:23.710Z,77.65
2022-11-26T18:17:52.174Z,77.95
2022-11-26T18:20:21.407Z,78.44
2022-11-26T18:22:55.957Z,92.40
2022-11-26T18:25:22.880Z,93.07
2022-11-26T18:27:49.312Z,87.51
2022-11-26T18:30:16.939Z,82.28
2022-11-26T18:32:44.161Z,77.81
2022-11-26T18:35:11.553Z,68.32
2022-11-26T18:37:39.845Z,69.37
2022-11-26T18:40:08.590Z,70.22
2022-11-26T18:42:37.465Z,71.25
2022-11-26T18:45:06.320Z,72.57
2022-11-26T18:47:33.157Z,72.99
2022-11-26T18:49:59.687Z,74.49
2022-11-26T18:52:26.441Z,75.09
2022-11-26T18:54:52.963Z,75.55
2022-11-26T18:57:19.557Z,75.53
2022-11-26T18:59:47.295Z,76.67
2022-11-26T19:02:13.835Z,77.08
2022-11-26T19:04:40.475Z,76.66
2022-11-26T19:07:07.057Z,77.24
2022-11-26T19:09:33.493Z,77.65
2022-11-26T19:11:59.976Z,78.18
2022-11-26T19:14:26.769Z,77.65
2022-11-26T19:16:53.368Z,77.96
2022-11-26T19:19:20.303Z,77.94
2022-11-26T19:21:47.448Z,78.49
2022-11-26T19:24:14.911Z,77.93
2022-11-26T19:26:42.062Z,78.54
2022-11-26T19:29:11.127Z,79.05
2022-11-26T19:31:39.629Z,78.86
2022-11-26T19:34:10.254Z,78.96
2022-11-26T19:36:37.313Z,90.92
2022-11-26T19:39:05.283Z,84.24
2022-11-26T19:41:32.586Z,74.32
2022-11-26T19:44:00.698Z,71.16
2022-11-26T19:46:27.868Z,72.55
2022-11-26T19:48:56.245Z,73.19
2022-11-26T19:51:24.640Z,74.65
2022-11-26T19:53:52.980Z,75.50
2022-11-26T19:56:22.820Z,75.21
2022-11-26T19:58:51.020Z,75.87
2022-11-26T20:01:18.192Z,76.52
2022-11-26T20:03:44.926Z,77.30
2022-11-26T20:06:24.080Z,77.40
2022-11-26T20:08:50.509Z,78.06
2022-11-26T20:11:18.464Z,77.44
2022-11-26T20:13:47.074Z,77.50
2022-11-26T20:16:17.608Z,78.47
2022-11-26T20:18:44.565Z,78.04
2022-11-26T20:21:14.145Z,77.88
2022-11-26T20:23:40.669Z,78.09
2022-11-26T20:26:17.454Z,77.71
2022-11-26T20:28:44.626Z,78.25
2022-11-26T20:31:13.389Z,78.43
2022-11-26T20:33:40.638Z,78.96
2022-11-26T20:36:09.145Z,79.08
2022-11-26T20:38:36.473Z,78.80
2022-11-26T20:41:10.645Z,79.28
2022-11-26T20:43:37.633Z,79.05
2022-11-26T20:46:07.285Z,79.47
2022-11-26T20:48:35.457Z,79.30
2022-11-26T20:51:04.172Z,79.63
2022-11-26T20:53:31.638Z,80.00
2022-11-26T20:55:58.426Z,80.23
2022-11-26T20:58:26.704Z,80.00
2022-11-26T21:00:54.995Z,80.52
2022-11-26T21:03:22.798Z,80.24
2022-11-26T21:05:51.055Z,80.37
2022-11-26T21:08:19.261Z,80.49
2022-11-26T21:10:45.778Z,80.03
2022-11-26T21:13:18.052Z,80.52
2022-11-26T21:15:47.360Z,80.39
2022-11-26T21:18:14.419Z,80.33
2022-11-26T21:20:42.066Z,80.57
2022-11-26T21:23:10.496Z,80.15
2022-11-26T21:25:38.504Z,80.14
2022-11-26T21:28:05.989Z,79.99
2022-11-26T21:30:33.410Z,79.87
2022-11-26T21:33:02.189Z,80.38
2022-11-26T21:35:32.576Z,80.04
2022-11-26T21:37:59.334Z,80.18
2022-11-26T21:40:28.066Z,80.06
2022-11-26T21:42:54.596Z,79.77
2022-11-26T21:45:21.145Z,80.31
2022-11-26T21:47:50.563Z,80.12
2022-11-26T21:50:18.731Z,80.17
2022-11-26T21:52:45.379Z,79.94
2022-11-26T21:55:12.100Z,80.38
2022-11-26T21:57:38.541Z,80.25
2022-11-26T22:00:05.906Z,80.52
2022-11-26T22:02:32.441Z,80.15
2022-11-26T22:04:58.935Z,80.60
2022-11-26T22:07:25.723Z,80.48
2022-11-26T22:09:52.394Z,80.61
2022-11-26T22:12:18.821Z,80.87
2022-11-26T22:14:45.288Z,80.52
2022-11-26T22:17:11.799Z,80.48
2022-11-26T22:19:38.616Z,81.29
2022-11-26T22:22:05.194Z,80.55
2022-11-26T22:24:31.682Z,81.01
2022-11-26T22:26:59.246Z,80.35
2022-11-26T22:29:25.740Z,80.83
2022-11-26T22:31:52.227Z,81.17
2022-11-26T22:34:22.084Z,80.88
2022-11-26T22:36:49.206Z,80.33
2022-11-26T22:39:17.531Z,80.77
2022-11-26T22:41:45.401Z,81.05
2022-11-26T22:44:13.361Z,80.89
2022-11-26T22:46:39.938Z,81.68
2022-11-26T22:49:12.441Z,81.00
2022-11-26T22:51:39.076Z,81.16
2022-11-26T22:54:07.428Z,81.08
2022-11-26T22:56:36.793Z,81.50
2022-11-26T22:59:03.996Z,80.90
2022-11-26T23:01:33.220Z,81.50
2022-11-26T23:04:02.161Z,81.78
2022-11-26T23:06:30.675Z,81.61
2022-11-26T23:08:58.195Z,81.42
2022-11-26T23:11:33.283Z,81.69
2022-11-26T23:14:03.065Z,81.89
2022-11-26T23:16:29.645Z,82.21
2022-11-26T23:18:57.137Z,82.40
2022-11-26T23:21:30.048Z,81.95
2022-11-26T23:23:57.308Z,81.67
2022-11-26T23:26:27.769Z,81.96
2022-11-26T23:28:56.139Z,81.71
2022-11-26T23:31:25.381Z,82.05
2022-11-26T23:33:52.663Z,82.17
2022-11-26T23:36:20.404Z,82.17
2022-11-26T23:38:47.139Z,82.80
2022-11-26T23:41:14.581Z,82.82
2022-11-26T23:43:41.205Z,82.94
2022-11-26T23:46:18.732Z,83.99
2022-11-26T23:48:46.068Z,84.00
2022-11-26T23:51:15.967Z,84.75
2022-11-26T23:53:45.232Z,85.17
2022-11-26T23:56:18.795Z,85.26
2022-11-26T23:58:49.418Z,84.37
